Time;durP1;ratioP1;P1;durP2;ratioP2;P2;SDS_P1;SDS_P2;PMS_P1;PMS_P2;Temp;Humidity;BMP_temperature;BMP_pressure;BME280_temperature;BME280_humidity;BME280_pressure;Samples;Min_cycle;Max_cycle;Signal;HPM_P1;HPM_P2
2022/07/27 00:00:59;;;;;;;0.10;0.10;;;13.70;99.90;;;;;;4999462;28;20422;-83
2022/07/27 00:03:25;;;;;;;0.00;0.00;;;13.70;99.90;;;;;;5017258;28;20041;-82
2022/07/27 00:05:51;;;;;;;0.40;0.40;;;13.60;99.90;;;;;;5017018;28;20049;-82
2022/07/27 00:08:19;;;;;;;0.10;0.10;;;13.50;99.90;;;;;;5000583;28;20056;-82
2022/07/27 00:10:45;;;;;;;1.27;0.30;;;13.40;99.90;;;;;;5016934;28;20041;-82
2022/07/27 00:13:11;;;;;;;0.10;0.10;;;13.20;99.90;;;;;;5000517;28;20069;-82
2022/07/27 00:15:37;;;;;;;0.10;0.10;;;13.10;99.90;;;;;;5000466;28;20509;-82
2022/07/27 00:18:03;;;;;;;0.10;0.10;;;12.90;99.90;;;;;;5016604;28;20046;-82
2022/07/27 00:20:30;;;;;;;0.10;0.10;;;12.80;99.90;;;;;;5016752;28;20098;-86
2022/07/27 00:22:57;;;;;;;0.00;0.00;;;12.60;99.90;;;;;;5000327;28;20049;-87
2022/07/27 00:25:25;;;;;;;0.00;0.00;;;12.50;99.90;;;;;;5016495;28;20049;-87
2022/07/27 00:27:51;;;;;;;0.10;0.10;;;12.30;99.90;;;;;;4984240;28;20543;-87
2022/07/27 00:30:17;;;;;;;0.10;0.10;;;12.20;99.90;;;;;;5000207;28;20120;-86
2022/07/27 00:32:43;;;;;;;0.10;0.10;;;12.00;99.90;;;;;;5000344;28;20106;-86
2022/07/27 00:35:09;;;;;;;0.10;0.10;;;11.90;99.90;;;;;;5016719;28;20492;-87
2022/07/27 00:37:35;;;;;;;0.10;0.10;;;11.80;99.90;;;;;;5000060;28;20100;-83
2022/07/27 00:40:01;;;;;;;0.10;0.10;;;11.70;99.90;;;;;;5016342;28;20115;-82
2022/07/27 00:42:27;;;;;;;0.10;0.10;;;11.60;99.90;;;;;;5016540;28;20036;-83
2022/07/27 00:44:54;;;;;;;0.10;0.10;;;11.60;99.90;;;;;;5016354;28;20492;-83
2022/07/27 00:47:20;;;;;;;0.00;0.00;;;11.50;99.90;;;;;;4999833;28;20438;-83
2022/07/27 00:49:47;;;;;;;0.35;0.30;;;11.40;99.90;;;;;;5016112;28;20484;-83
2022/07/27 00:52:13;;;;;;;0.10;0.10;;;11.30;99.90;;;;;;5016032;28;20041;-83
2022/07/27 00:54:40;;;;;;;0.10;0.10;;;11.30;99.90;;;;;;5016337;28;20069;-82
2022/07/27 00:57:06;;;;;;;0.35;0.10;;;11.20;99.90;;;;;;5016027;28;20503;-82
2022/07/27 00:59:32;;;;;;;0.10;0.10;;;11.20;99.90;;;;;;5016121;28;20099;-82
2022/07/27 01:01:57;;;;;;;0.00;0.00;;;11.10;99.90;;;;;;4998324;28;20038;-81
2022/07/27 01:04:23;;;;;;;0.00;0.00;;;11.00;99.90;;;;;;5016234;28;20045;-81
2022/07/27 01:06:49;;;;;;;0.10;0.10;;;11.00;99.90;;;;;;5015815;28;20049;-82
2022/07/27 01:11:58;;;;;;;0.15;0.15;;;10.80;99.90;;;;;;5016191;28;20084;-86
2022/07/27 01:14:24;;;;;;;0.00;0.00;;;10.80;99.90;;;;;;5016132;28;20068;-86
2022/07/27 01:16:53;;;;;;;0.00;0.00;;;10.70;99.90;;;;;;4982997;28;20555;-86
2022/07/27 01:19:19;;;;;;;0.10;0.10;;;10.70;99.90;;;;;;4983518;28;20037;-86
2022/07/27 01:21:44;;;;;;;0.10;0.10;;;10.60;99.90;;;;;;4999583;28;20094;-86
2022/07/27 01:24:10;;;;;;;0.10;0.10;;;10.60;99.90;;;;;;5016039;28;20045;-86
2022/07/27 01:26:37;;;;;;;0.00;0.00;;;10.50;99.90;;;;;;5015571;28;20049;-86
2022/07/27 01:29:03;;;;;;;0.08;0.08;;;10.50;99.90;;;;;;5015886;28;20182;-86
2022/07/27 01:31:29;;;;;;;0.00;0.00;;;10.40;99.90;;;;;;4999484;28;20534;-86
2022/07/27 01:33:55;;;;;;;0.00;0.00;;;10.40;99.90;;;;;;5015591;28;20160;-86
2022/07/27 01:36:21;;;;;;;0.10;0.10;;;10.40;99.90;;;;;;4983123;28;20132;-86
2022/07/27 01:38:47;;;;;;;0.10;0.10;;;10.40;99.90;;;;;;5015546;28;20045;-86
2022/07/27 01:41:13;;;;;;;0.00;0.00;;;10.30;99.90;;;;;;4999251;28;20041;-86
2022/07/27 01:43:39;;;;;;;0.10;0.10;;;10.30;99.90;;;;;;5015941;28;20455;-83
2022/07/27 01:46:05;;;;;;;0.00;0.00;;;10.30;99.90;;;;;;4998996;28;20064;-83
2022/07/27 01:48:31;;;;;;;0.00;0.00;;;10.30;99.90;;;;;;5015465;28;20128;-83
2022/07/27 01:50:57;;;;;;;0.00;0.00;;;10.20;99.90;;;;;;4998952;28;20474;-83
2022/07/27 01:53:23;;;;;;;0.00;0.00;;;;;;;;;;5015467;28;20033;-83
2022/07/27 01:55:50;;;;;;;0.05;0.05;;;10.20;99.90;;;;;;5015383;28;20479;-83
2022/07/27 01:58:16;;;;;;;0.00;0.00;;;10.20;99.90;;;;;;5015493;28;20041;-83
2022/07/27 02:00:42;;;;;;;0.10;0.10;;;10.10;99.90;;;;;;5014373;28;20038;-83
2022/07/27 02:03:09;;;;;;;0.00;0.00;;;10.10;99.90;;;;;;4998792;28;20045;-83
2022/07/27 02:05:36;;;;;;;0.10;0.10;;;10.00;99.90;;;;;;4999042;28;20046;-83
2022/07/27 02:08:02;;;;;;;0.00;0.00;;;10.10;99.90;;;;;;5015301;28;20091;-82
2022/07/27 02:10:28;;;;;;;0.10;0.10;;;10.00;99.90;;;;;;5015257;28;20041;-83
2022/07/27 02:12:54;;;;;;;0.35;0.32;;;10.00;99.90;;;;;;5015513;28;20044;-83
2022/07/27 02:15:22;;;;;;;0.00;0.00;;;10.00;99.90;;;;;;5016154;28;20492;-83
2022/07/27 02:17:48;;;;;;;0.00;0.00;;;10.00;99.90;;;;;;5019048;28;20066;-86
2022/07/27 02:20:17;;;;;;;0.10;0.10;;;10.10;99.90;;;;;;4986453;28;20037;-86
2022/07/27 02:22:44;;;;;;;0.00;0.00;;;10.00;99.90;;;;;;5018977;28;20041;-86
2022/07/27 02:25:11;;;;;;;0.00;0.00;;;10.00;99.90;;;;;;5002889;28;20072;-86
2022/07/27 02:27:37;;;;;;;0.00;0.00;;;10.00;99.90;;;;;;5001898;28;20041;-86
2022/07/27 02:30:04;;;;;;;0.00;0.00;;;9.90;99.90;;;;;;4983070;28;20095;-86
2022/07/27 02:32:30;;;;;;;0.10;0.10;;;9.80;99.90;;;;;;4982997;28;20034;-86
2022/07/27 02:34:56;;;;;;;0.10;0.10;;;9.80;99.90;;;;;;4999468;28;20184;-82
2022/07/27 02:37:21;;;;;;;0.10;0.10;;;9.90;99.90;;;;;;4999011;28;20124;-83
2022/07/27 02:39:48;;;;;;;0.10;0.10;;;10.00;99.90;;;;;;4982948;28;20041;-83
2022/07/27 02:42:14;;;;;;;0.00;0.00;;;10.10;99.90;;;;;;4998952;28;20042;-83
2022/07/27 02:44:40;;;;;;;0.10;0.10;;;10.30;99.90;;;;;;4998695;28;20061;-83
2022/07/27 02:47:05;;;;;;;0.10;0.10;;;10.40;99.90;;;;;;4998480;28;20066;-83
2022/07/27 02:49:31;;;;;;;0.00;0.00;;;10.60;99.90;;;;;;4982692;28;20038;-83
2022/07/27 02:51:57;;;;;;;0.10;0.10;;;10.70;99.90;;;;;;4966682;28;20041;-86
2022/07/27 02:54:24;;;;;;;0.10;0.10;;;10.90;99.90;;;;;;4998842;28;20049;-86
2022/07/27 02:56:54;;;;;;;0.10;0.10;;;11.10;99.90;;;;;;5006728;28;20059;-86
2022/07/27 02:59:21;;;;;;;0.00;0.00;;;11.20;99.90;;;;;;5018359;28;20099;-86
2022/07/27 03:01:48;;;;;;;0.10;0.10;;;11.50;99.90;;;;;;5001856;28;20491;-86
2022/07/27 03:04:14;;;;;;;0.32;0.32;;;11.10;99.90;;;;;;5016811;28;20056;-86
2022/07/27 03:06:41;;;;;;;0.05;0.05;;;11.60;99.90;;;;;;5018098;28;20046;-86
2022/07/27 03:09:07;;;;;;;0.10;0.10;;;11.60;99.90;;;;;;5018378;28;20131;-86
2022/07/27 03:11:33;;;;;;;0.10;0.10;;;11.60;99.90;;;;;;5001734;28;20040;-86
2022/07/27 03:13:59;;;;;;;0.00;0.00;;;11.60;99.90;;;;;;5001525;28;20034;-86
2022/07/27 03:16:24;;;;;;;0.10;0.10;;;11.60;99.90;;;;;;5001774;28;20095;-86
2022/07/27 03:18:50;;;;;;;0.00;0.00;;;11.60;99.90;;;;;;5001620;28;20506;-86
2022/07/27 03:21:16;;;;;;;0.00;0.00;;;11.70;99.90;;;;;;5018140;28;20041;-86
2022/07/27 03:23:41;;;;;;;0.00;0.00;;;11.80;99.90;;;;;;5018000;28;20122;-82
2022/07/27 03:26:07;;;;;;;0.10;0.10;;;11.80;99.90;;;;;;5017271;28;20388;-81
2022/07/27 03:28:33;;;;;;;0.00;0.00;;;11.90;99.90;;;;;;5016934;28;20033;-82
2022/07/27 03:30:59;;;;;;;0.00;0.00;;;11.90;99.90;;;;;;5017916;28;20041;-82
2022/07/27 03:33:25;;;;;;;0.00;0.00;;;12.00;99.90;;;;;;5001449;28;20040;-81
2022/07/27 03:35:50;;;;;;;0.10;0.10;;;12.00;99.90;;;;;;5001230;28;20041;-82
2022/07/27 03:38:16;;;;;;;0.10;0.10;;;12.10;99.90;;;;;;5017494;28;20049;-82
2022/07/27 03:40:42;;;;;;;0.10;0.10;;;12.20;99.90;;;;;;5017546;28;20483;-82
2022/07/27 03:43:08;;;;;;;0.00;0.00;;;12.50;99.90;;;;;;5017666;28;20049;-82
2022/07/27 03:45:34;;;;;;;0.00;0.00;;;12.30;99.90;;;;;;5017173;28;20052;-82
2022/07/27 03:47:59;;;;;;;0.00;0.00;;;12.70;99.90;;;;;;5017736;28;20045;-82
2022/07/27 03:50:25;;;;;;;0.10;0.10;;;12.40;99.90;;;;;;5000947;28;20503;-82
2022/07/27 03:52:51;;;;;;;0.08;0.08;;;12.50;99.90;;;;;;5000965;28;20037;-81
2022/07/27 03:55:19;;;;;;;0.08;0.08;;;12.50;99.90;;;;;;5017528;28;20096;-82
2022/07/27 03:57:45;;;;;;;0.00;0.00;;;12.50;99.90;;;;;;5017363;28;20072;-82
2022/07/27 04:00:12;;;;;;;0.00;0.00;;;12.60;99.90;;;;;;4997458;28;20073;-83
2022/07/27 04:02:38;;;;;;;0.00;0.00;;;12.50;99.90;;;;;;4997281;28;20041;-83
2022/07/27 04:05:05;;;;;;;0.25;0.25;;;12.60;99.90;;;;;;5016414;28;20072;-83
2022/07/27 04:07:30;;;;;;;0.00;0.00;;;12.60;99.90;;;;;;5016644;28;20073;-83
2022/07/27 04:09:56;;;;;;;0.10;0.10;;;12.60;99.90;;;;;;5017092;28;20049;-83
2022/07/27 04:12:22;;;;;;;0.10;0.10;;;12.70;99.90;;;;;;5000493;28;20042;-83
2022/07/27 04:14:47;;;;;;;0.10;0.10;;;12.70;99.90;;;;;;5016935;28;20045;-86
2022/07/27 04:17:13;;;;;;;0.00;0.00;;;12.80;99.90;;;;;;5016936;28;20049;-86
2022/07/27 04:19:39;;;;;;;0.10;0.10;;;12.80;99.90;;;;;;5000456;28;20050;-86
2022/07/27 04:22:05;;;;;;;0.00;0.00;;;12.80;99.90;;;;;;5000321;28;20041;-86
2022/07/27 04:24:30;;;;;;;0.10;0.10;;;12.80;99.90;;;;;;5000512;28;20128;-86
2022/07/27 04:26:56;;;;;;;0.10;0.10;;;12.90;99.90;;;;;;4999999;28;20052;-86
2022/07/27 04:29:22;;;;;;;0.10;0.10;;;13.00;99.90;;;;;;5016894;28;20099;-86
2022/07/27 04:31:47;;;;;;;0.32;0.15;;;13.00;99.90;;;;;;5016843;28;20120;-87
2022/07/27 04:34:13;;;;;;;0.00;0.00;;;13.10;99.90;;;;;;4984008;28;20069;-86
2022/07/27 04:36:39;;;;;;;0.10;0.10;;;13.20;99.90;;;;;;5016473;28;20091;-86
2022/07/27 04:39:05;;;;;;;0.10;0.10;;;13.20;99.90;;;;;;4983854;28;20049;-86
2022/07/27 04:41:31;;;;;;;0.10;0.10;;;13.30;99.90;;;;;;5016543;28;20038;-86
2022/07/27 04:43:57;;;;;;;0.10;0.10;;;13.30;99.90;;;;;;4984041;28;20414;-86
2022/07/27 04:46:23;;;;;;;0.00;0.00;;;13.40;99.90;;;;;;5016262;28;20068;-82
2022/07/27 04:48:49;;;;;;;0.05;0.05;;;13.40;99.90;;;;;;4999958;28;20037;-82
2022/07/27 04:51:16;;;;;;;0.00;0.00;;;13.50;99.90;;;;;;5016125;28;20124;-82
2022/07/27 04:53:42;;;;;;;0.00;0.00;;;13.60;99.90;;;;;;4983775;28;20037;-82
2022/07/27 04:56:08;;;;;;;0.00;0.00;;;13.60;99.90;;;;;;5016226;28;20041;-82
2022/07/27 04:58:35;;;;;;;0.00;0.00;;;13.70;99.90;;;;;;5016188;28;20106;-82
2022/07/27 05:01:01;;;;;;;0.08;0.08;;;13.70;99.90;;;;;;5016294;28;20049;-82
2022/07/27 05:03:27;;;;;;;0.00;0.00;;;13.80;99.90;;;;;;5014761;28;20052;-83
2022/07/27 05:05:53;;;;;;;0.10;0.10;;;13.80;99.90;;;;;;4999395;28;20048;-83
2022/07/27 05:08:19;;;;;;;0.10;0.10;;;13.90;99.90;;;;;;5015995;28;20037;-83
2022/07/27 05:10:45;;;;;;;0.00;0.00;;;14.00;99.90;;;;;;5016040;28;20124;-83
2022/07/27 05:13:11;;;;;;;0.13;0.13;;;14.10;99.90;;;;;;5016192;28;20037;-83
2022/07/27 05:15:38;;;;;;;0.00;0.00;;;14.20;99.90;;;;;;5015720;28;20458;-83
2022/07/27 05:18:04;;;;;;;0.00;0.00;;;14.30;99.90;;;;;;5015900;28;20045;-83
2022/07/27 05:20:30;;;;;;;0.15;0.15;;;14.40;99.90;;;;;;4999791;28;20506;-83
2022/07/27 05:22:55;;;;;;;1.65;1.23;;;14.50;99.90;;;;;;5015924;28;20045;-83
2022/07/27 05:25:24;;;;;;;0.00;0.00;;;14.60;99.90;;;;;;4999433;28;20041;-83
2022/07/27 05:27:51;;;;;;;0.00;0.00;;;14.70;99.90;;;;;;5015733;28;20480;-83
2022/07/27 05:30:17;;;;;;;0.00;0.00;;;14.90;99.90;;;;;;5015691;28;20124;-83
2022/07/27 05:32:44;;;;;;;0.30;0.30;;;15.00;99.90;;;;;;5016047;28;20116;-83
2022/07/27 05:35:09;;;;;;;0.10;0.10;;;15.10;99.90;;;;;;5015905;28;20045;-83
2022/07/27 05:37:35;;;;;;;0.00;0.00;;;15.20;99.90;;;;;;4999609;28;20556;-83
2022/07/27 05:40:02;;;;;;;0.00;0.00;;;15.30;99.90;;;;;;4983206;28;20045;-83
2022/07/27 05:42:27;;;;;;;0.00;0.00;;;15.40;99.90;;;;;;4999139;28;20398;-83
2022/07/27 05:44:54;;;;;;;0.10;0.10;;;15.40;99.90;;;;;;4999333;28;20099;-83
2022/07/27 05:47:20;;;;;;;0.10;0.10;;;15.50;99.90;;;;;;5015193;28;20050;-83
2022/07/27 05:49:46;;;;;;;0.10;0.10;;;15.50;99.90;;;;;;4983231;28;20496;-83
2022/07/27 05:52:11;;;;;;;0.00;0.00;;;15.60;99.90;;;;;;4987277;28;20124;-83
2022/07/27 05:54:37;;;;;;;0.00;0.00;;;15.60;99.90;;;;;;5003283;28;20124;-87
2022/07/27 05:57:03;;;;;;;0.00;0.00;;;15.70;99.90;;;;;;5019401;28;20041;-85
2022/07/27 05:59:30;;;;;;;0.45;0.45;;;15.70;99.90;;;;;;5019338;28;20079;-85
2022/07/27 06:01:57;;;;;;;0.00;0.00;;;15.80;99.90;;;;;;5019305;28;20049;-87
2022/07/27 06:04:24;;;;;;;0.00;0.00;;;15.90;99.90;;;;;;5018109;28;20052;-85
2022/07/27 06:09:35;;;;;;;0.05;0.05;;;;;;;;;;5019193;28;20041;-85
2022/07/27 06:12:01;;;;;;;0.00;0.00;;;16.80;99.90;;;;;;5002948;28;20069;-81
2022/07/27 06:14:26;;;;;;;0.10;0.10;;;17.40;99.90;;;;;;5003082;28;20120;-82
2022/07/27 06:16:53;;;;;;;0.00;0.00;;;;;;;;;;5019195;28;20440;-81
2022/07/27 06:19:19;;;;;;;0.22;0.22;;;19.90;99.90;;;;;;5002792;28;20045;-82
2022/07/27 06:21:44;;;;;;;0.10;0.10;;;21.60;99.90;;;;;;5018965;28;20083;-82
2022/07/27 06:24:11;;;;;;;0.00;0.00;;;21.60;99.90;;;;;;5019232;28;20136;-82
2022/07/27 06:26:36;;;;;;;1.00;0.30;;;22.80;99.90;;;;;;5002427;28;20399;-86
2022/07/27 06:29:02;;;;;;;0.03;0.03;;;24.00;98.10;;;;;;5002820;28;20049;-86
2022/07/27 06:31:29;;;;;;;0.10;0.10;;;24.00;98.30;;;;;;5002738;28;20426;-86
2022/07/27 06:33:56;;;;;;;0.10;0.10;;;25.10;95.00;;;;;;5018855;28;20120;-87
2022/07/27 06:36:22;;;;;;;0.47;0.47;;;25.10;95.50;;;;;;5018607;28;20133;-86
2022/07/27 06:38:48;;;;;;;0.60;0.60;;;25.40;93.10;;;;;;5002408;28;20131;-86
2022/07/27 06:41:14;;;;;;;0.00;0.00;;;25.40;93.70;;;;;;5002605;28;20037;-86
2022/07/27 06:43:40;;;;;;;0.28;0.28;;;25.20;93.40;;;;;;5002411;28;20049;-87
2022/07/27 06:46:06;;;;;;;0.00;0.00;;;25.50;94.60;;;;;;5018172;28;20063;-87
2022/07/27 06:48:32;;;;;;;0.10;0.10;;;25.80;93.00;;;;;;4986054;28;20038;-87
2022/07/27 06:50:59;;;;;;;0.10;0.10;;;26.00;93.70;;;;;;5018324;28;20083;-87
2022/07/27 06:53:25;;;;;;;0.20;0.20;;;26.10;92.20;;;;;;5018551;28;20045;-87
2022/07/27 06:55:52;;;;;;;0.10;0.10;;;25.80;92.80;;;;;;5018254;28;20041;-87
2022/07/27 06:58:18;;;;;;;0.10;0.10;;;26.30;92.40;;;;;;4998910;28;20519;-87
2022/07/27 07:00:44;;;;;;;0.25;0.22;;;27.50;90.10;;;;;;5057931;22;20119;-86
2022/07/27 07:03:10;;;;;;;0.20;0.20;;;27.50;90.30;;;;;;5053248;28;20627;-87
2022/07/27 07:05:44;;;;;;;0.28;0.28;;;28.10;88.00;;;;;;5037716;28;20044;-86
2022/07/27 07:08:10;;;;;;;0.10;0.10;;;27.70;87.90;;;;;;5021670;28;20077;-87
2022/07/27 07:10:41;;;;;;;0.30;0.30;;;28.60;90.80;;;;;;5021411;28;20427;-87
2022/07/27 07:13:07;;;;;;;0.10;0.10;;;29.00;82.70;;;;;;5021483;28;20072;-87
2022/07/27 07:15:35;;;;;;;0.10;0.10;;;29.20;83.80;;;;;;5052315;28;20036;-87
2022/07/27 07:18:02;;;;;;;0.10;0.10;;;29.50;82.40;;;;;;5041191;28;20379;-87
2022/07/27 07:20:29;;;;;;;0.10;0.10;;;29.80;81.90;;;;;;5041499;28;20387;-87
2022/07/27 07:22:55;;;;;;;0.10;0.10;;;30.00;83.80;;;;;;5041113;28;20490;-87
2022/07/27 07:25:21;;;;;;;0.35;0.35;;;30.10;82.00;;;;;;5041056;28;20102;-87
2022/07/27 07:27:47;;;;;;;0.20;0.20;;;30.40;79.80;;;;;;5039106;28;20036;-87
2022/07/27 07:30:13;;;;;;;0.08;0.08;;;30.60;82.10;;;;;;5037816;28;20099;-87
2022/07/27 07:32:38;;;;;;;0.20;0.20;;;30.80;76.60;;;;;;5037638;28;20032;-87
2022/07/27 07:35:05;;;;;;;0.43;0.40;;;30.90;76.90;;;;;;5037592;28;20044;-87
2022/07/27 07:37:31;;;;;;;0.10;0.10;;;31.60;75.20;;;;;;5021114;28;20106;-87
2022/07/27 07:39:58;;;;;;;0.43;0.43;;;31.60;79.40;;;;;;5037465;28;20052;-87
2022/07/27 07:42:24;;;;;;;0.10;0.10;;;31.10;75.50;;;;;;5037247;28;20075;-87
2022/07/27 07:44:49;;;;;;;0.20;0.20;;;29.60;75.90;;;;;;5037383;28;20044;-87
2022/07/27 07:47:15;;;;;;;0.20;0.20;;;28.30;78.80;;;;;;5037101;28;20037;-87
2022/07/27 07:49:41;;;;;;;0.17;0.17;;;28.90;82.90;;;;;;5037275;28;20047;-88
2022/07/27 07:52:07;;;;;;;1.60;0.73;;;28.60;79.20;;;;;;5020745;28;20041;-88
2022/07/27 07:54:32;;;;;;;0.25;0.25;;;28.90;80.80;;;;;;5020691;28;20067;-87
2022/07/27 07:56:58;;;;;;;1.10;0.35;;;28.90;82.20;;;;;;5045863;28;20045;-87
2022/07/27 07:59:24;;;;;;;0.00;0.00;;;28.70;81.10;;;;;;5056736;28;20106;-87
2022/07/27 08:01:50;;;;;;;0.00;0.00;;;27.80;82.00;;;;;;5040151;28;20087;-87
2022/07/27 08:04:15;;;;;;;0.47;0.47;;;26.20;81.90;;;;;;5038654;28;20139;-87
2022/07/27 08:06:41;;;;;;;0.13;0.13;;;25.70;82.80;;;;;;5023760;28;20044;-86
2022/07/27 08:09:07;;;;;;;0.10;0.10;;;24.00;85.60;;;;;;5040494;28;20044;-86
2022/07/27 08:11:33;;;;;;;0.10;0.10;;;23.50;86.30;;;;;;5056472;28;20406;-87
2022/07/27 08:13:59;;;;;;;0.15;0.15;;;22.70;86.80;;;;;;5039594;28;20055;-86
2022/07/27 08:16:25;;;;;;;0.20;0.20;;;22.50;88.10;;;;;;5056465;28;20044;-86
2022/07/27 08:18:50;;;;;;;0.10;0.10;;;21.50;89.30;;;;;;5056839;28;20047;-86
2022/07/27 08:21:16;;;;;;;0.40;0.40;;;21.10;90.10;;;;;;5023355;28;20402;-86
2022/07/27 08:23:42;;;;;;;0.10;0.10;;;20.90;90.20;;;;;;5040046;28;20040;-86
2022/07/27 08:26:07;;;;;;;0.35;0.35;;;20.60;90.70;;;;;;5056233;28;20102;-87
2022/07/27 08:28:33;;;;;;;0.45;0.45;;;20.50;90.90;;;;;;5056457;28;20074;-86
2022/07/27 08:30:59;;;;;;;0.05;0.05;;;20.40;91.70;;;;;;5056510;28;20039;-86
2022/07/27 08:33:25;;;;;;;0.13;0.13;;;20.40;91.80;;;;;;5056361;28;20398;-87
2022/07/27 08:35:51;;;;;;;0.10;0.10;;;20.40;91.70;;;;;;5039659;28;20128;-86
2022/07/27 08:38:17;;;;;;;0.45;0.35;;;20.40;91.60;;;;;;5056228;28;20045;-86
2022/07/27 08:40:43;;;;;;;0.10;0.10;;;20.50;91.90;;;;;;5056117;28;20093;-83
2022/07/27 08:43:09;;;;;;;0.10;0.10;;;20.60;92.10;;;;;;5039763;28;20076;-83
2022/07/27 08:45:36;;;;;;;0.10;0.10;;;20.70;91.90;;;;;;5056201;28;20398;-82
2022/07/27 08:48:03;;;;;;;0.10;0.10;;;20.80;92.00;;;;;;5056019;28;20052;-82
2022/07/27 08:50:33;;;;;;;0.00;0.00;;;20.90;92.00;;;;;;5039319;28;20491;-82
2022/07/27 08:53:06;;;;;;;0.00;0.00;;;21.10;92.60;;;;;;5039425;28;20033;-82
2022/07/27 08:55:37;;;;;;;0.10;0.10;;;21.20;92.30;;;;;;5055756;28;20075;-83
2022/07/27 08:58:04;;;;;;;0.00;0.00;;;21.50;92.40;;;;;;5055859;28;20509;-87
2022/07/27 09:00:30;;;;;;;0.00;0.00;;;21.80;92.10;;;;;;5038988;28;20060;-86
2022/07/27 09:02:57;;;;;;;0.10;0.10;;;22.00;91.90;;;;;;5053286;28;20381;-86
2022/07/27 09:05:23;;;;;;;0.10;0.10;;;22.90;90.90;;;;;;5035574;28;20048;-87
2022/07/27 09:07:50;;;;;;;1.10;0.75;;;22.90;91.00;;;;;;5035714;28;20040;-87
2022/07/27 09:10:32;;;;;;;0.10;0.10;;;23.80;90.80;;;;;;5035658;28;20043;-87
2022/07/27 09:12:58;;;;;;;0.10;0.10;;;25.40;86.00;;;;;;5035755;28;20075;-87
2022/07/27 09:15:24;;;;;;;0.20;0.20;;;25.50;84.00;;;;;;5048726;28;20129;-86
2022/07/27 09:17:50;;;;;;;0.20;0.20;;;25.40;84.90;;;;;;5038947;28;20036;-87
2022/07/27 09:20:19;;;;;;;0.03;0.03;;;25.10;84.80;;;;;;5022320;28;20044;-87
2022/07/27 09:22:52;;;;;;;0.08;0.08;;;24.80;88.10;;;;;;5055467;28;20041;-87
2022/07/27 09:25:25;;;;;;;0.00;0.00;;;24.40;86.70;;;;;;5054462;28;20040;-87
2022/07/27 09:27:56;;;;;;;0.10;0.10;;;23.90;86.70;;;;;;5039104;28;20049;-87
2022/07/27 09:30:22;;;;;;;0.10;0.10;;;22.90;87.60;;;;;;5038829;28;20055;-83
2022/07/27 09:33:06;;;;;;;7.57;0.80;;;22.80;88.20;;;;;;5055673;28;20051;-83
2022/07/27 09:35:34;;;;;;;0.10;0.10;;;22.40;89.50;;;;;;5039026;28;20154;-83
2022/07/27 09:38:22;;;;;;;0.00;0.00;;;22.00;89.30;;;;;;5055375;28;20045;-83
2022/07/27 09:41:00;;;;;;;0.03;0.03;;;21.60;90.20;;;;;;5055435;28;20466;-83
2022/07/27 09:43:27;;;;;;;0.00;0.00;;;21.40;90.70;;;;;;5055283;28;20110;-83
2022/07/27 09:45:54;;;;;;;0.00;0.00;;;21.30;90.30;;;;;;5055068;28;20051;-83
2022/07/27 09:48:22;;;;;;;0.55;0.22;;;21.20;91.40;;;;;;5055243;28;20072;-83
2022/07/27 09:50:57;;;;;;;0.05;0.05;;;21.40;91.30;;;;;;5038440;28;20119;-83
2022/07/27 09:53:26;;;;;;;0.15;0.13;;;21.70;91.10;;;;;;5038948;28;20364;-83
2022/07/27 09:55:58;;;;;;;0.25;0.25;;;22.60;91.30;;;;;;5055102;28;20487;-83
2022/07/27 09:58:46;;;;;;;0.00;0.00;;;24.70;91.30;;;;;;5019078;28;20395;-84
2022/07/27 10:01:16;;;;;;;0.10;0.10;;;27.70;85.90;;;;;;5034912;28;20053;-83
2022/07/27 10:03:43;;;;;;;0.10;0.10;;;28.50;83.80;;;;;;5034384;28;20049;-83
2022/07/27 10:06:10;;;;;;;0.20;0.20;;;28.50;81.50;;;;;;5035003;28;20041;-83
2022/07/27 10:08:38;;;;;;;0.10;0.10;;;29.60;77.80;;;;;;5035353;28;20398;-84
2022/07/27 10:11:05;;;;;;;0.00;0.00;;;31.10;77.50;;;;;;5018599;28;20037;-84
2022/07/27 10:13:31;;;;;;;0.10;0.10;;;31.10;75.50;;;;;;5018854;28;20095;-84
2022/07/27 10:15:59;;;;;;;0.05;0.05;;;30.60;75.60;;;;;;5036065;28;20498;-84
2022/07/27 10:18:41;;;;;;;0.20;0.20;;;29.40;75.80;;;;;;5055228;28;20063;-84
2022/07/27 10:21:09;;;;;;;0.30;0.30;;;28.00;76.80;;;;;;5055356;28;20123;-84
2022/07/27 10:23:38;;;;;;;1.23;0.20;;;26.90;76.70;;;;;;5038451;28;20041;-83
2022/07/27 10:26:14;;;;;;;0.20;0.20;;;25.40;78.20;;;;;;5038224;28;20106;-84
2022/07/27 10:28:58;;;;;;;0.10;0.10;;;25.00;79.60;;;;;;5054842;28;20536;-83
2022/07/27 10:31:32;;;;;;;0.00;0.00;;;24.20;80.70;;;;;;5055040;28;20364;-84
2022/07/27 10:34:00;;;;;;;0.20;0.20;;;23.60;80.90;;;;;;5038242;28;20045;-83
2022/07/27 10:36:28;;;;;;;0.00;0.00;;;23.10;81.80;;;;;;5039173;28;20045;-83
2022/07/27 10:38:57;;;;;;;0.30;0.30;;;22.60;81.70;;;;;;5058439;28;20072;-83
2022/07/27 10:41:25;;;;;;;0.10;0.10;;;22.50;83.00;;;;;;5058605;28;20093;-83
2022/07/27 10:44:22;;;;;;;0.10;0.10;;;22.30;83.30;;;;;;5058442;28;20045;-83
2022/07/27 10:47:00;;;;;;;0.90;0.20;;;22.30;83.30;;;;;;5058199;28;20044;-83
2022/07/27 10:49:31;;;;;;;0.00;0.00;;;22.40;84.20;;;;;;5058648;28;20429;-83
2022/07/27 10:51:58;;;;;;;0.00;0.00;;;22.70;84.10;;;;;;5058215;28;20487;-83
2022/07/27 10:54:25;;;;;;;0.00;0.00;;;23.10;83.70;;;;;;5058260;28;20059;-87
2022/07/27 10:56:54;;;;;;;0.35;0.35;;;23.70;83.20;;;;;;5058358;28;20036;-87
2022/07/27 10:59:38;;;;;;;0.10;0.10;;;24.10;82.70;;;;;;5041345;28;20061;-87
2022/07/27 11:02:17;;;;;;;0.20;0.20;;;25.60;82.90;;;;;;5057958;28;20044;-87
2022/07/27 11:04:49;;;;;;;0.10;0.10;;;27.00;79.20;;;;;;5023581;28;20048;-88
2022/07/27 11:07:19;;;;;;;0.22;0.17;;;28.60;77.40;;;;;;5037784;28;20186;-88
2022/07/27 11:09:47;;;;;;;0.08;0.08;;;30.10;74.30;;;;;;5021442;28;20510;-87
2022/07/27 11:12:14;;;;;;;0.00;0.00;;;31.30;75.10;;;;;;5037856;28;20103;-88
2022/07/27 11:15:00;;;;;;;0.10;0.10;;;32.10;73.50;;;;;;5028732;28;20037;-88
2022/07/27 11:17:27;;;;;;;0.10;0.10;;;32.70;70.90;;;;;;5057756;28;20049;-88
2022/07/27 11:19:59;;;;;;;0.40;0.40;;;33.10;67.60;;;;;;5024686;28;20487;-88
2022/07/27 11:22:37;;;;;;;0.10;0.10;;;33.30;67.70;;;;;;5057855;28;20445;-87
2022/07/27 11:25:04;;;;;;;0.10;0.10;;;32.90;67.80;;;;;;5057718;28;20051;-87
2022/07/27 11:27:30;;;;;;;0.10;0.10;;;31.50;65.10;;;;;;5057455;28;20068;-84
2022/07/27 11:29:56;;;;;;;0.10;0.10;;;30.80;66.40;;;;;;5057761;28;20130;-85
2022/07/27 11:32:22;;;;;;;0.10;0.10;;;31.00;69.20;;;;;;5040891;28;20037;-84
2022/07/27 11:34:48;;;;;;;0.22;0.22;;;31.50;68.30;;;;;;5040986;28;20485;-84
2022/07/27 11:37:18;;;;;;;0.52;0.52;;;32.20;68.30;;;;;;5040715;28;20041;-85
2022/07/27 11:39:46;;;;;;;0.10;0.10;;;32.00;66.00;;;;;;5040736;28;20044;-84
2022/07/27 11:42:13;;;;;;;0.00;0.00;;;30.80;66.20;;;;;;5040582;28;20075;-84
2022/07/27 11:44:41;;;;;;;0.00;0.00;;;29.60;67.30;;;;;;5057346;28;20123;-87
2022/07/27 11:47:07;;;;;;;0.00;0.00;;;28.80;69.40;;;;;;5040473;28;20429;-87
2022/07/27 11:49:34;;;;;;;0.05;0.05;;;28.40;69.70;;;;;;5056442;28;20458;-88
2022/07/27 11:52:09;;;;;;;0.25;0.25;;;28.10;69.80;;;;;;5057402;28;20432;-88
2022/07/27 11:54:40;;;;;;;0.00;0.00;;;28.60;71.20;;;;;;5040592;28;20097;-88
2022/07/27 11:57:17;;;;;;;0.10;0.10;;;29.40;69.10;;;;;;5040354;28;20052;-87
2022/07/27 11:59:44;;;;;;;0.00;0.00;;;29.50;68.80;;;;;;5040415;28;20510;-85
2022/07/27 12:02:12;;;;;;;0.10;0.10;;;28.80;69.00;;;;;;5040156;28;20509;-84
2022/07/27 12:04:43;;;;;;;0.00;0.00;;;27.80;70.20;;;;;;5055553;28;20119;-84
2022/07/27 12:07:15;;;;;;;0.00;0.00;;;27.40;71.60;;;;;;5056809;28;20036;-84
2022/07/27 12:09:54;;;;;;;0.00;0.00;;;27.20;71.90;;;;;;5057058;28;20390;-84
2022/07/27 12:12:27;;;;;;;0.10;0.10;;;26.60;72.50;;;;;;5039839;28;20044;-84
2022/07/27 12:15:16;;;;;;;0.00;0.00;;;26.00;74.00;;;;;;5031061;28;20112;-84
2022/07/27 12:17:43;;;;;;;0.20;0.20;;;27.00;74.90;;;;;;5020204;28;20083;-84
2022/07/27 12:20:14;;;;;;;0.17;0.10;;;27.20;72.80;;;;;;5049583;28;20463;-84
2022/07/27 12:22:52;;;;;;;0.10;0.10;;;26.70;72.60;;;;;;5039715;28;20083;-84
2022/07/27 12:25:18;;;;;;;0.10;0.10;;;26.00;74.00;;;;;;5056924;28;20075;-84
2022/07/27 12:28:05;;;;;;;0.00;0.00;;;25.50;74.40;;;;;;5038372;28;20497;-84
2022/07/27 12:30:45;;;;;;;0.00;0.00;;;24.90;75.00;;;;;;5036640;28;20437;-83
2022/07/27 12:33:34;;;;;;;2.30;1.73;;;24.60;75.80;;;;;;5036333;28;20037;-83
2022/07/27 12:36:02;;;;;;;0.00;0.00;;;24.40;76.70;;;;;;5053175;28;20048;-83
2022/07/27 12:38:37;;;;;;;0.20;0.20;;;24.30;76.30;;;;;;5036254;28;20045;-83
2022/07/27 12:41:03;;;;;;;0.10;0.10;;;24.00;76.40;;;;;;5036457;28;20048;-84
2022/07/27 12:43:29;;;;;;;0.05;0.05;;;24.00;76.80;;;;;;5036408;28;20049;-84
2022/07/27 12:45:54;;;;;;;0.73;0.73;;;23.90;77.50;;;;;;5036095;28;20044;-84
2022/07/27 12:48:23;;;;;;;0.03;0.03;;;23.80;77.30;;;;;;5036165;28;20068;-84
2022/07/27 12:51:01;;;;;;;0.00;0.00;;;23.90;77.60;;;;;;5035970;28;20103;-82
2022/07/27 12:53:27;;;;;;;0.22;0.22;;;23.80;78.90;;;;;;5036115;28;20491;-82
2022/07/27 12:55:55;;;;;;;0.00;0.00;;;23.80;79.30;;;;;;5038513;28;20079;-82